Fort Ritner, Indiana
Current Conditions -  °F | °C
As of 12:53 PM on Friday 28 Nov 2014 (Local Time) from KBMG Reporting Station
Overcast Overcast  
Wind Chill: 22°   Ceiling: 12000
Heat Index: 31°   Visibility: 10mi
Dew Point: 21°   Wind: 10mph
Humidity: 67%   Direction: 160°SSE
Pressure: 30.24"   Gusts: NA
Location:  38.77°N, 86.28°W
Report Text: KBMG 281753Z 16009KT 10SM OVC120 M01/M06 A3024 RMK AO2 SLP249 T10061061 11006 21061 58038
Loading
Personal Weather Stations






























Interactive Weather Map New forecast layout! Learn more

10-Day Weather Forecast

Advertisements
Track Severe Weather on mobile